Terminal Aerodrome Forecast
Issued by NWS

Home | Current Version | Previous Version | Text Only | Print | Product List | Glossary On
Versions: 1 2 3 4 5 6 7 8 9 10 11 12 13 14 15 16 17 18
000
FTUS43 KICT 241139
TAFCNU
TAF
KCNU 241139Z 2412/2512 35006KT P6SM SKC
     FM242300 35012KT P6SM OVC090
     FM250600 35011KT P6SM OVC060
     FM251100 34009KT P6SM VCSH OVC030=

USA.gov is the U.S. government's official web portal to all federal, state and local government web resources and services.